sensor_id;sensor_type;location;lat;lon;timestamp;pressure;altitude;pressure_sealevel;temperature;humidity
75867;BME280;64513;56.258;43.980;2023-01-31T00:00:01;98245.71;;;4.50;74.73
75867;BME280;64513;56.258;43.980;2023-01-31T00:02:48;98237.86;;;4.50;74.61
75867;BME280;64513;56.258;43.980;2023-01-31T00:05:12;98236.80;;;4.51;74.68
75867;BME280;64513;56.258;43.980;2023-01-31T00:07:36;98243.61;;;4.52;74.64
75867;BME280;64513;56.258;43.980;2023-01-31T00:10:01;98239.16;;;4.53;74.57
75867;BME280;64513;56.258;43.980;2023-01-31T00:12:25;98228.69;;;4.53;74.67
75867;BME280;64513;56.258;43.980;2023-01-31T00:14:50;98218.99;;;4.53;74.59
75867;BME280;64513;56.258;43.980;2023-01-31T00:17:14;98251.45;;;4.52;74.54
75867;BME280;64513;56.258;43.980;2023-01-31T00:19:38;98239.42;;;4.51;74.65
75867;BME280;64513;56.258;43.980;2023-01-31T00:22:02;98254.08;;;4.52;74.30
75867;BME280;64513;56.258;43.980;2023-01-31T00:24:26;98217.43;;;4.52;74.28
75867;BME280;64513;56.258;43.980;2023-01-31T00:26:50;98239.16;;;4.53;74.41
75867;BME280;64513;56.258;43.980;2023-01-31T00:29:16;98234.70;;;4.53;74.24
75867;BME280;64513;56.258;43.980;2023-01-31T00:31:40;98240.98;;;4.52;74.23
75867;BME280;64513;56.258;43.980;2023-01-31T00:34:04;98218.99;;;4.53;74.07
75867;BME280;64513;56.258;43.980;2023-01-31T00:36:31;98250.41;;;4.53;74.15
75867;BME280;64513;56.258;43.980;2023-01-31T00:38:58;98230.25;;;4.54;74.17
75867;BME280;64513;56.258;43.980;2023-01-31T00:41:23;98237.83;;;4.55;74.36
75867;BME280;64513;56.258;43.980;2023-01-31T00:43:49;98237.83;;;4.55;74.30
75867;BME280;64513;56.258;43.980;2023-01-31T00:46:13;98251.70;;;4.56;74.43
75867;BME280;64513;56.258;43.980;2023-01-31T00:48:37;98233.37;;;4.56;74.39
75867;BME280;64513;56.258;43.980;2023-01-31T00:51:02;98228.14;;;4.56;74.44
75867;BME280;64513;56.258;43.980;2023-01-31T00:53:26;98219.98;;;4.57;74.28
75867;BME280;64513;56.258;43.980;2023-01-31T00:55:52;98213.97;;;4.57;74.17
75867;BME280;64513;56.258;43.980;2023-01-31T00:58:17;98231.23;;;4.58;74.31
75867;BME280;64513;56.258;43.980;2023-01-31T01:00:41;98208.46;;;4.58;73.98
75867;BME280;64513;56.258;43.980;2023-01-31T01:03:05;98235.69;;;4.57;73.78
75867;BME280;64513;56.258;43.980;2023-01-31T01:05:29;98243.55;;;4.57;73.56
75867;BME280;64513;56.258;43.980;2023-01-31T01:07:54;98244.33;;;4.58;73.77
75867;BME280;64513;56.258;43.980;2023-01-31T01:10:18;98234.64;;;4.58;73.91
75867;BME280;64513;56.258;43.980;2023-01-31T01:12:42;98230.45;;;4.57;73.96
75867;BME280;64513;56.258;43.980;2023-01-31T01:15:06;98238.31;;;4.57;73.70
75867;BME280;64513;56.258;43.980;2023-01-31T01:17:31;98239.87;;;4.58;73.74
75867;BME280;64513;56.258;43.980;2023-01-31T01:19:55;98239.87;;;4.58;73.96
75867;BME280;64513;56.258;43.980;2023-01-31T01:22:21;98242.49;;;4.58;74.04
75867;BME280;64513;56.258;43.980;2023-01-31T01:24:45;98222.33;;;4.59;73.63
75867;BME280;64513;56.258;43.980;2023-01-31T01:27:09;98235.69;;;4.57;73.65
75867;BME280;64513;56.258;43.980;2023-01-31T01:29:34;98257.42;;;4.58;73.40
75867;BME280;64513;56.258;43.980;2023-01-31T01:31:59;98218.93;;;4.58;73.15
75867;BME280;64513;56.258;43.980;2023-01-31T01:34:23;98241.98;;;4.56;72.99
75867;BME280;64513;56.258;43.980;2023-01-31T01:36:47;98234.13;;;4.56;73.16
75867;BME280;64513;56.258;43.980;2023-01-31T01:39:11;98252.45;;;4.56;73.23
75867;BME280;64513;56.258;43.980;2023-01-31T01:41:38;98237.05;;;4.55;73.19
75867;BME280;64513;56.258;43.980;2023-01-31T01:44:41;98244.90;;;4.55;73.00
75867;BME280;64513;56.258;43.980;2023-01-31T01:49:35;98251.97;;;4.54;73.19
75867;BME280;64513;56.258;43.980;2023-01-31T01:52:02;98250.41;;;4.53;72.90
75867;BME280;64513;56.258;43.980;2023-01-31T01:55:04;98238.38;;;4.52;72.83
75867;BME280;64513;56.258;43.980;2023-01-31T01:56:57;98237.86;;;4.50;73.09
75867;BME280;64513;56.258;43.980;2023-01-31T01:59:24;98244.14;;;4.49;72.92
75867;BME280;64513;56.258;43.980;2023-01-31T02:01:50;98254.61;;;4.49;73.11
75867;BME280;64513;56.258;43.980;2023-01-31T02:04:18;98246.77;;;4.49;73.00
75867;BME280;64513;56.258;43.980;2023-01-31T02:06:43;98226.88;;;4.48;72.88
75867;BME280;64513;56.258;43.980;2023-01-31T02:09:11;98237.62;;;4.47;72.78
75867;BME280;64513;56.258;43.980;2023-01-31T02:11:36;98247.30;;;4.46;72.75
75867;BME280;64513;56.258;43.980;2023-01-31T02:14:02;98230.03;;;4.45;72.69
75867;BME280;64513;56.258;43.980;2023-01-31T02:16:27;98249.92;;;4.46;72.87
75867;BME280;64513;56.258;43.980;2023-01-31T02:18:52;98242.34;;;4.45;72.65
75867;BME280;64513;56.258;43.980;2023-01-31T02:21:42;98236.32;;;4.44;72.40
75867;BME280;64513;56.258;43.980;2023-01-31T02:36:37;98226.45;;;4.36;72.25
75867;BME280;64513;56.258;43.980;2023-01-31T02:53:16;98282.48;;;4.30;72.30
75867;BME280;64513;56.258;43.980;2023-01-31T03:01:34;98286.41;;;4.28;72.77
75867;BME280;64513;56.258;43.980;2023-01-31T03:04:01;98277.78;;;4.27;72.78
75867;BME280;64513;56.258;43.980;2023-01-31T03:07:01;98270.72;;;4.28;72.71
75867;BME280;64513;56.258;43.980;2023-01-31T03:08:57;98279.34;;;4.28;72.87
75867;BME280;64513;56.258;43.980;2023-01-31T03:17:48;98267.05;;;4.29;73.05
75867;BME280;64513;56.258;43.980;2023-01-31T03:23:08;98290.59;;;4.29;73.13
75867;BME280;64513;56.258;43.980;2023-01-31T03:25:33;98288.77;;;4.29;73.17
75867;BME280;64513;56.258;43.980;2023-01-31T03:28:01;98278.30;;;4.29;73.45
75867;BME280;64513;56.258;43.980;2023-01-31T03:33:15;98263.11;;;4.31;73.08
75867;BME280;64513;56.258;43.980;2023-01-31T03:35:41;98257.88;;;4.31;73.22
75867;BME280;64513;56.258;43.980;2023-01-31T03:38:29;98247.14;;;4.33;73.16
75867;BME280;64513;56.258;43.980;2023-01-31T03:47:37;98268.59;;;4.35;73.61
75867;BME280;64513;56.258;43.980;2023-01-31T03:49:28;98303.19;;;4.66;81.91
75867;BME280;64513;56.258;43.980;2023-01-31T03:51:58;98296.78;;;4.82;81.03
75867;BME280;64513;56.258;43.980;2023-01-31T03:54:58;98284.66;;;4.91;79.84
75867;BME280;64513;56.258;43.980;2023-01-31T03:57:23;98283.53;;;5.02;80.95
75867;BME280;64513;56.258;43.980;2023-01-31T03:59:19;98269.81;;;5.10;80.31
75867;BME280;64513;56.258;43.980;2023-01-31T04:01:47;98303.06;;;5.15;79.65
75867;BME280;64513;56.258;43.980;2023-01-31T04:07:17;98292.03;;;5.18;78.85
75867;BME280;64513;56.258;43.980;2023-01-31T04:09:41;98298.05;;;5.18;78.09
75867;BME280;64513;56.258;43.980;2023-01-31T04:12:05;98259.46;;;5.24;79.33
75867;BME280;64513;56.258;43.980;2023-01-31T04:14:30;98299.00;;;5.27;79.40
75867;BME280;64513;56.258;43.980;2023-01-31T04:16:54;98316.80;;;5.31;79.20
75867;BME280;64513;56.258;43.980;2023-01-31T04:19:18;98312.34;;;5.31;78.70
75867;BME280;64513;56.258;43.980;2023-01-31T04:21:43;98307.88;;;5.32;78.20
75867;BME280;64513;56.258;43.980;2023-01-31T04:24:07;98313.40;;;5.30;77.95
75867;BME280;64513;56.258;43.980;2023-01-31T04:26:32;98323.10;;;5.29;77.64
75867;BME280;64513;56.258;43.980;2023-01-31T04:28:56;98315.00;;;5.26;77.29
75867;BME280;64513;56.258;43.980;2023-01-31T04:31:20;98324.70;;;5.25;76.72
75867;BME280;64513;56.258;43.980;2023-01-31T04:33:45;98315.55;;;5.23;76.69
75867;BME280;64513;56.258;43.980;2023-01-31T04:36:09;98323.69;;;5.21;76.47
75867;BME280;64513;56.258;43.980;2023-01-31T04:38:34;98324.73;;;5.20;76.41
75867;BME280;64513;56.258;43.980;2023-01-31T04:40:58;98331.06;;;5.19;76.14
75867;BME280;64513;56.258;43.980;2023-01-31T04:43:22;98324.53;;;5.17;75.74
75867;BME280;64513;56.258;43.980;2023-01-31T04:45:46;98343.14;;;5.15;75.51
75867;BME280;64513;56.258;43.980;2023-01-31T04:48:11;98339.74;;;5.15;75.62
75867;BME280;64513;56.258;43.980;2023-01-31T04:50:35;98326.91;;;5.13;75.22
75867;BME280;64513;56.258;43.980;2023-01-31T04:52:59;98320.11;;;5.12;75.01
75867;BME280;64513;56.258;43.980;2023-01-31T04:55:25;98328.23;;;5.11;75.01
75867;BME280;64513;56.258;43.980;2023-01-31T04:57:49;98323.27;;;5.09;75.16
75867;BME280;64513;56.258;43.980;2023-01-31T05:00:14;98333.75;;;5.09;75.02
75867;BME280;64513;56.258;43.980;2023-01-31T05:02:38;98332.19;;;5.08;74.79
75867;BME280;64513;56.258;43.980;2023-01-31T05:05:04;98340.05;;;5.08;74.45
75867;BME280;64513;56.258;43.980;2023-01-31T05:07:28;98346.34;;;5.07;74.10
75867;BME280;64513;56.258;43.980;2023-01-31T05:09:52;98336.92;;;5.06;74.06
75867;BME280;64513;56.258;43.980;2023-01-31T05:12:16;98343.21;;;5.05;74.05
75867;BME280;64513;56.258;43.980;2023-01-31T05:14:40;98339.02;;;5.04;74.12
75867;BME280;64513;56.258;43.980;2023-01-31T05:17:05;98354.74;;;5.04;74.04
75867;BME280;64513;56.258;43.980;2023-01-31T05:19:29;98358.45;;;5.03;74.37
75867;BME280;64513;56.258;43.980;2023-01-31T05:21:53;98358.45;;;5.03;74.26
75867;BME280;64513;56.258;43.980;2023-01-31T05:24:19;98337.48;;;5.03;74.14
75867;BME280;64513;56.258;43.980;2023-01-31T05:26:43;98356.88;;;5.02;73.92
75867;BME280;64513;56.258;43.980;2023-01-31T05:29:08;98357.66;;;5.03;73.86
75867;BME280;64513;56.258;43.980;2023-01-31T05:31:32;98358.45;;;5.03;73.92
75867;BME280;64513;56.258;43.980;2023-01-31T05:33:56;98346.41;;;5.02;73.99
75867;BME280;64513;56.258;43.980;2023-01-31T05:36:20;98343.48;;;5.04;74.01
75867;BME280;64513;56.258;43.980;2023-01-31T05:38:44;98328.55;;;5.04;73.76
75867;BME280;64513;56.258;43.980;2023-01-31T05:41:09;98337.48;;;5.03;73.48
75867;BME280;64513;56.258;43.980;2023-01-31T05:43:33;98370.47;;;5.04;73.17
75867;BME280;64513;56.258;43.980;2023-01-31T05:45:57;98344.84;;;5.01;73.08
75867;BME280;64513;56.258;43.980;2023-01-31T05:48:21;98374.17;;;5.03;73.16
75867;BME280;64513;56.258;43.980;2023-01-31T05:50:47;98321.77;;;5.03;73.33
75867;BME280;64513;56.258;43.980;2023-01-31T05:53:11;98365.22;;;5.04;73.43
75867;BME280;64513;56.258;43.980;2023-01-31T05:55:36;98381.45;;;5.06;73.59
75867;BME280;64513;56.258;43.980;2023-01-31T05:58:00;98384.86;;;5.07;73.80
75867;BME280;64513;56.258;43.980;2023-01-31T06:00:26;98379.62;;;5.07;73.57
75867;BME280;64513;56.258;43.980;2023-01-31T06:02:50;98369.92;;;5.07;73.42
75867;BME280;64513;56.258;43.980;2023-01-31T06:05:14;98375.16;;;5.07;73.46
75867;BME280;64513;56.258;43.980;2023-01-31T06:07:39;98377.78;;;5.07;73.54
75867;BME280;64513;56.258;43.980;2023-01-31T06:10:04;98389.05;;;5.08;73.70
75867;BME280;64513;56.258;43.980;2023-01-31T06:12:29;98397.69;;;5.08;73.74
75867;BME280;64513;56.258;43.980;2023-01-31T06:14:53;98394.02;;;5.09;73.85
75867;BME280;64513;56.258;43.980;2023-01-31T06:17:17;98365.98;;;5.10;73.72
75867;BME280;64513;56.258;43.980;2023-01-31T06:22:09;98367.27;;;5.12;73.90
75867;BME280;64513;56.258;43.980;2023-01-31T06:24:35;98387.69;;;5.15;73.65
75867;BME280;64513;56.258;43.980;2023-01-31T06:26:59;98382.45;;;5.15;73.70
75867;BME280;64513;56.258;43.980;2023-01-31T06:29:24;98410.22;;;5.16;73.90
75867;BME280;64513;56.258;43.980;2023-01-31T06:34:59;98391.61;;;5.18;73.53
75867;BME280;64513;56.258;43.980;2023-01-31T06:37:25;98375.10;;;5.17;73.50
75867;BME280;64513;56.258;43.980;2023-01-31T06:39:49;98379.29;;;5.18;73.60
75867;BME280;64513;56.258;43.980;2023-01-31T06:42:14;98399.20;;;5.19;73.66
75867;BME280;64513;56.258;43.980;2023-01-31T06:44:40;98396.28;;;5.21;73.76
75867;BME280;64513;56.258;43.980;2023-01-31T06:47:04;98405.44;;;5.23;73.66
75867;BME280;64513;56.258;43.980;2023-01-31T06:49:30;98409.63;;;5.24;73.76
75867;BME280;64513;56.258;43.980;2023-01-31T06:51:54;98408.56;;;5.25;73.99
75867;BME280;64513;56.258;43.980;2023-01-31T06:54:18;98382.88;;;5.27;73.89
75867;BME280;64513;56.258;43.980;2023-01-31T06:56:43;98393.87;;;5.29;73.85
75867;BME280;64513;56.258;43.980;2023-01-31T06:59:07;98402.23;;;5.32;73.85
75867;BME280;64513;56.258;43.980;2023-01-31T07:01:31;98393.33;;;5.33;73.67
75867;BME280;64513;56.258;43.980;2023-01-31T07:03:55;98401.70;;;5.35;73.61
75867;BME280;64513;56.258;43.980;2023-01-31T07:06:19;98397.99;;;5.36;73.42
75867;BME280;64513;56.258;43.980;2023-01-31T07:08:43;98401.91;;;5.38;73.39
75867;BME280;64513;56.258;43.980;2023-01-31T07:11:08;98408.72;;;5.39;73.34
75867;BME280;64513;56.258;43.980;2023-01-31T07:13:32;98411.06;;;5.41;73.43
75867;BME280;64513;56.258;43.980;2023-01-31T07:15:56;98402.92;;;5.42;73.62
75867;BME280;64513;56.258;43.980;2023-01-31T07:18:20;98406.84;;;5.45;73.68
75867;BME280;64513;56.258;43.980;2023-01-31T07:20:44;98398.70;;;5.46;73.69
75867;BME280;64513;56.258;43.980;2023-01-31T07:23:08;98412.87;;;5.45;73.57
75867;BME280;64513;56.258;43.980;2023-01-31T07:25:33;98411.55;;;5.48;73.57
75867;BME280;64513;56.258;43.980;2023-01-31T07:27:57;98412.33;;;5.48;73.62
75867;BME280;64513;56.258;43.980;2023-01-31T07:30:21;98426.73;;;5.51;73.62
75867;BME280;64513;56.258;43.980;2023-01-31T07:32:46;98430.89;;;5.52;73.61
75867;BME280;64513;56.258;43.980;2023-01-31T07:35:10;98421.97;;;5.53;73.39
75867;BME280;64513;56.258;43.980;2023-01-31T07:37:34;98421.69;;;5.54;73.38
75867;BME280;64513;56.258;43.980;2023-01-31T07:39:58;98438.20;;;5.55;73.31
75867;BME280;64513;56.258;43.980;2023-01-31T07:42:22;98432.42;;;5.58;72.98
75867;BME280;64513;56.258;43.980;2023-01-31T07:44:46;98414.06;;;5.58;73.00
75867;BME280;64513;56.258;43.980;2023-01-31T07:47:10;98432.42;;;5.58;72.98
75867;BME280;64513;56.258;43.980;2023-01-31T07:49:34;98413.01;;;5.59;72.74
75867;BME280;64513;56.258;43.980;2023-01-31T07:52:00;98405.66;;;5.61;73.06
75867;BME280;64513;56.258;43.980;2023-01-31T07:54:24;98436.06;;;5.62;72.94
75867;BME280;64513;56.258;43.980;2023-01-31T07:56:48;98403.54;;;5.63;72.82
75867;BME280;64513;56.258;43.980;2023-01-31T07:59:12;98415.59;;;5.64;72.63
75867;BME280;64513;56.258;43.980;2023-01-31T08:01:38;98423.97;;;5.66;72.61
75867;BME280;64513;56.258;43.980;2023-01-31T08:04:22;98415.80;;;5.68;72.49
75867;BME280;64513;56.258;43.980;2023-01-31T08:06:46;98400.84;;;5.68;72.16
75867;BME280;64513;56.258;43.980;2023-01-31T08:09:12;98415.80;;;5.68;72.20
75867;BME280;64513;56.258;43.980;2023-01-31T08:11:36;98420.50;;;5.71;72.38
75867;BME280;64513;56.258;43.980;2023-01-31T08:14:00;98417.60;;;5.72;72.43
75867;BME280;64513;56.258;43.980;2023-01-31T08:16:25;98440.15;;;5.73;72.22
75867;BME280;64513;56.258;43.980;2023-01-31T08:18:51;98413.92;;;5.73;72.09
75867;BME280;64513;56.258;43.980;2023-01-31T08:21:15;98418.63;;;5.76;72.10
75867;BME280;64513;56.258;43.980;2023-01-31T08:23:40;98447.20;;;5.78;72.35
75867;BME280;64513;56.258;43.980;2023-01-31T08:26:24;98444.30;;;5.79;72.52
75867;BME280;64513;56.258;43.980;2023-01-31T08:28:51;98447.44;;;5.81;72.38
75867;BME280;64513;56.258;43.980;2023-01-31T08:31:19;98434.02;;;5.83;72.25
75867;BME280;64513;56.258;43.980;2023-01-31T08:33:43;98432.17;;;5.83;72.05
75867;BME280;64513;56.258;43.980;2023-01-31T08:36:09;98455.23;;;5.86;72.10
75867;BME280;64513;56.258;43.980;2023-01-31T08:38:33;98457.85;;;5.91;72.07
75867;BME280;64513;56.258;43.980;2023-01-31T08:40:58;98431.06;;;5.94;71.75
75867;BME280;64513;56.258;43.980;2023-01-31T08:43:22;98446.26;;;5.97;71.64
75867;BME280;64513;56.258;43.980;2023-01-31T08:45:46;98428.09;;;6.01;71.51
75867;BME280;64513;56.258;43.980;2023-01-31T08:48:10;98411.80;;;6.04;71.50
75867;BME280;64513;56.258;43.980;2023-01-31T08:50:35;98437.77;;;6.06;71.72
75867;BME280;64513;56.258;43.980;2023-01-31T08:53:02;98414.66;;;6.08;71.79
75867;BME280;64513;56.258;43.980;2023-01-31T08:55:27;98462.91;;;6.12;71.61
75867;BME280;64513;56.258;43.980;2023-01-31T08:57:53;98468.36;;;6.15;71.43
75867;BME280;64513;56.258;43.980;2023-01-31T09:00:18;98454.41;;;6.20;70.95
75867;BME280;64513;56.258;43.980;2023-01-31T09:02:43;98467.53;;;6.20;70.92
75867;BME280;64513;56.258;43.980;2023-01-31T09:05:07;98470.66;;;6.22;71.16
75867;BME280;64513;56.258;43.980;2023-01-31T09:07:32;98460.16;;;6.22;71.36
75867;BME280;64513;56.258;43.980;2023-01-31T09:09:56;98468.03;;;6.22;71.69
75867;BME280;64513;56.258;43.980;2023-01-31T09:12:20;98436.54;;;6.22;71.87
75867;BME280;64513;56.258;43.980;2023-01-31T09:14:44;98474.07;;;6.22;71.98
75867;BME280;64513;56.258;43.980;2023-01-31T09:17:08;98479.59;;;6.21;72.37
75867;BME280;64513;56.258;43.980;2023-01-31T09:19:32;98473.84;;;6.19;72.55
75867;BME280;64513;56.258;43.980;2023-01-31T09:21:57;98477.52;;;6.18;72.63
75867;BME280;64513;56.258;43.980;2023-01-31T09:24:21;98476.73;;;6.17;72.57
75867;BME280;64513;56.258;43.980;2023-01-31T09:26:46;98475.95;;;6.17;72.57
75867;BME280;64513;56.258;43.980;2023-01-31T09:29:10;98480.15;;;6.18;72.53
75867;BME280;64513;56.258;43.980;2023-01-31T09:31:34;98482.77;;;6.18;72.55
75867;BME280;64513;56.258;43.980;2023-01-31T09:33:58;98492.72;;;6.21;72.71
75867;BME280;64513;56.258;43.980;2023-01-31T09:36:23;98487.98;;;6.23;72.71
75867;BME280;64513;56.258;43.980;2023-01-31T09:38:52;98488.48;;;6.25;72.77
75867;BME280;64513;56.258;43.980;2023-01-31T09:44:38;98487.94;;;6.28;72.73
75867;BME280;64513;56.258;43.980;2023-01-31T09:47:24;98485.31;;;6.28;72.49
75867;BME280;64513;56.258;43.980;2023-01-31T09:52:53;98461.96;;;6.26;72.39
75867;BME280;64513;56.258;43.980;2023-01-31T10:06:23;98474.53;;;6.29;73.04
75867;BME280;64513;56.258;43.980;2023-01-31T10:17:46;98496.09;;;6.26;73.38
75867;BME280;64513;56.258;43.980;2023-01-31T10:23:00;98495.30;;;6.26;73.23
75867;BME280;64513;56.258;43.980;2023-01-31T10:25:46;98495.30;;;6.26;73.36
75867;BME280;64513;56.258;43.980;2023-01-31T10:28:12;98499.77;;;6.25;73.33
75867;BME280;64513;56.258;43.980;2023-01-31T10:56:55;98488.80;;;6.18;73.22
75867;BME280;64513;56.258;43.980;2023-01-31T10:59:41;98498.52;;;6.18;73.01
75867;BME280;64513;56.258;43.980;2023-01-31T11:04:53;98492.21;;;6.19;73.04
75867;BME280;64513;56.258;43.980;2023-01-31T11:07:19;98489.59;;;6.19;72.86
75867;BME280;64513;56.258;43.980;2023-01-31T11:09:46;98490.38;;;6.19;72.91
75867;BME280;64513;56.258;43.980;2023-01-31T11:12:13;98496.67;;;6.18;72.89
75867;BME280;64513;56.258;43.980;2023-01-31T11:14:37;98494.84;;;6.19;72.94
75867;BME280;64513;56.258;43.980;2023-01-31T11:17:22;98500.88;;;6.19;72.92
75867;BME280;64513;56.258;43.980;2023-01-31T11:20:14;98498.25;;;6.19;73.17
75867;BME280;64513;56.258;43.980;2023-01-31T11:22:34;98500.09;;;6.19;73.29
75867;BME280;64513;56.258;43.980;2023-01-31T11:25:02;98495.62;;;6.19;73.41
75867;BME280;64513;56.258;43.980;2023-01-31T11:32:59;98506.39;;;6.18;73.04
75867;BME280;64513;56.258;43.980;2023-01-31T11:40:57;98496.95;;;6.17;73.22
75867;BME280;64513;56.258;43.980;2023-01-31T11:46:07;98499.06;;;6.15;73.06
75867;BME280;64513;56.258;43.980;2023-01-31T11:51:40;98497.53;;;6.14;72.87
75867;BME280;64513;56.258;43.980;2023-01-31T11:54:06;98505.10;;;6.15;72.90
75867;BME280;64513;56.258;43.980;2023-01-31T11:56:33;98484.41;;;6.14;72.71
75867;BME280;64513;56.258;43.980;2023-01-31T11:59:32;98486.25;;;6.13;72.82
75867;BME280;64513;56.258;43.980;2023-01-31T12:01:26;98509.09;;;6.13;72.70
75867;BME280;64513;56.258;43.980;2023-01-31T12:06:38;98503.84;;;6.13;72.81
75867;BME280;64513;56.258;43.980;2023-01-31T12:12:32;98513.83;;;6.11;72.70
75867;BME280;64513;56.258;43.980;2023-01-31T12:50:31;98502.53;;;6.82;77.36
75867;BME280;64513;56.258;43.980;2023-01-31T12:55:30;98505.23;;;6.77;75.79
75867;BME280;64513;56.258;43.980;2023-01-31T13:07:11;98496.95;;;6.64;74.36
75867;BME280;64513;56.258;43.980;2023-01-31T13:09:56;98499.08;;;6.62;74.23
75867;BME280;64513;56.258;43.980;2023-01-31T13:12:24;98505.70;;;6.60;74.21
75867;BME280;64513;56.258;43.980;2023-01-31T13:17:36;98534.87;;;6.58;74.05
75867;BME280;64513;56.258;43.980;2023-01-31T13:20:13;98523.08;;;6.56;73.77
75867;BME280;64513;56.258;43.980;2023-01-31T13:22:51;98533.86;;;6.54;73.78
75867;BME280;64513;56.258;43.980;2023-01-31T13:39:44;98560.23;;;6.44;73.65
75867;BME280;64513;56.258;43.980;2023-01-31T13:42:29;98565.76;;;6.43;73.80
75867;BME280;64513;56.258;43.980;2023-01-31T13:44:55;98560.78;;;6.41;73.78
75867;BME280;64513;56.258;43.980;2023-01-31T13:50:30;98569.20;;;6.38;73.84
75867;BME280;64513;56.258;43.980;2023-01-31T13:52:53;98582.34;;;6.38;73.83
75867;BME280;64513;56.258;43.980;2023-01-31T13:55:21;98558.20;;;6.36;74.02
75867;BME280;64513;56.258;43.980;2023-01-31T14:15:01;98624.45;;;6.28;74.17
75867;BME280;64513;56.258;43.980;2023-01-31T14:26:29;98643.87;;;6.27;74.23
75867;BME280;64513;56.258;43.980;2023-01-31T14:28:32;98647.56;;;6.26;74.23
75867;BME280;64513;56.258;43.980;2023-01-31T14:33:28;98650.45;;;6.24;74.08
75867;BME280;64513;56.258;43.980;2023-01-31T15:05:47;98669.64;;;6.20;74.00
75867;BME280;64513;56.258;43.980;2023-01-31T15:08:46;98674.11;;;6.19;73.77
75867;BME280;64513;56.258;43.980;2023-01-31T15:11:02;98653.89;;;6.20;73.86
75867;BME280;64513;56.258;43.980;2023-01-31T15:16:32;98676.47;;;6.21;73.58
75867;BME280;64513;56.258;43.980;2023-01-31T15:22:06;98641.83;;;6.19;73.49
75867;BME280;64513;56.258;43.980;2023-01-31T15:24:51;98654.68;;;6.20;73.40
75867;BME280;64513;56.258;43.980;2023-01-31T15:27:37;98681.72;;;6.21;73.60
75867;BME280;64513;56.258;43.980;2023-01-31T15:30:23;98673.56;;;6.22;73.77
75867;BME280;64513;56.258;43.980;2023-01-31T15:41:44;98678.58;;;6.19;73.62
75867;BME280;64513;56.258;43.980;2023-01-31T15:44:29;98696.44;;;6.17;73.51
75867;BME280;64513;56.258;43.980;2023-01-31T15:46:54;98701.41;;;6.18;73.67
75867;BME280;64513;56.258;43.980;2023-01-31T15:50:13;98703.25;;;6.18;73.34
75867;BME280;64513;56.258;43.980;2023-01-31T15:52:25;98672.81;;;6.17;73.32
75867;BME280;64513;56.258;43.980;2023-01-31T15:57:40;98680.69;;;6.17;73.20
75867;BME280;64513;56.258;43.980;2023-01-31T16:00:04;98700.90;;;6.16;73.01
75867;BME280;64513;56.258;43.980;2023-01-31T16:02:30;98707.20;;;6.15;72.74
75867;BME280;64513;56.258;43.980;2023-01-31T16:04:55;98700.11;;;6.16;72.56
75867;BME280;64513;56.258;43.980;2023-01-31T16:07:22;98679.11;;;6.16;72.62
75867;BME280;64513;56.258;43.980;2023-01-31T16:09:49;98685.15;;;6.16;72.46
75867;BME280;64513;56.258;43.980;2023-01-31T16:12:15;98676.48;;;6.16;72.26
75867;BME280;64513;56.258;43.980;2023-01-31T16:17:27;98693.30;;;6.15;72.06
75867;BME280;64513;56.258;43.980;2023-01-31T16:19:52;98682.80;;;6.15;71.80
75867;BME280;64513;56.258;43.980;2023-01-31T16:25:04;98691.70;;;6.19;74.30
75867;BME280;64513;56.258;43.980;2023-01-31T16:27:31;98699.52;;;6.29;76.75
75867;BME280;64513;56.258;43.980;2023-01-31T16:29:56;98717.84;;;6.34;77.26
75867;BME280;64513;56.258;43.980;2023-01-31T16:32:23;98721.50;;;6.38;76.80
75867;BME280;64513;56.258;43.980;2023-01-31T16:43:45;98705.47;;;6.40;74.48
75867;BME280;64513;56.258;43.980;2023-01-31T16:49:36;98736.47;;;6.38;73.78
75867;BME280;64513;56.258;43.980;2023-01-31T16:55:10;98741.48;;;6.34;72.94
75867;BME280;64513;56.258;43.980;2023-01-31T17:00:37;98734.14;;;6.31;72.34
75867;BME280;64513;56.258;43.980;2023-01-31T17:03:02;98726.56;;;6.29;72.27
75867;BME280;64513;56.258;43.980;2023-01-31T17:08:35;98712.13;;;6.27;71.91
75867;BME280;64513;56.258;43.980;2023-01-31T17:10:59;98733.14;;;6.27;71.91
75867;BME280;64513;56.258;43.980;2023-01-31T17:13:24;98727.37;;;6.25;71.55
75867;BME280;64513;56.258;43.980;2023-01-31T17:15:51;98709.78;;;6.25;71.57
75867;BME280;64513;56.258;43.980;2023-01-31T17:18:15;98719.50;;;6.25;71.55
75867;BME280;64513;56.258;43.980;2023-01-31T17:20:41;98735.25;;;6.25;71.66
75867;BME280;64513;56.258;43.980;2023-01-31T17:23:08;98708.21;;;6.24;71.61
75867;BME280;64513;56.258;43.980;2023-01-31T17:25:34;98726.31;;;6.26;71.35
75867;BME280;64513;56.258;43.980;2023-01-31T17:27:58;98725.80;;;6.24;71.31
75867;BME280;64513;56.258;43.980;2023-01-31T17:30:22;98730.00;;;6.25;71.18
75867;BME280;64513;56.258;43.980;2023-01-31T17:32:48;98728.42;;;6.24;71.28
75867;BME280;64513;56.258;43.980;2023-01-31T17:37:59;98723.69;;;6.26;71.13
75867;BME280;64513;56.258;43.980;2023-01-31T17:40:23;98732.62;;;6.25;71.04
75867;BME280;64513;56.258;43.980;2023-01-31T17:42:48;98741.55;;;6.24;71.20
75867;BME280;64513;56.258;43.980;2023-01-31T17:45:15;98753.63;;;6.25;71.22
75867;BME280;64513;56.258;43.980;2023-01-31T17:47:40;98737.09;;;6.24;71.11
75867;BME280;64513;56.258;43.980;2023-01-31T17:50:04;98719.50;;;6.25;71.20
75867;BME280;64513;56.258;43.980;2023-01-31T17:52:28;98744.96;;;6.24;71.17
75867;BME280;64513;56.258;43.980;2023-01-31T17:54:53;98738.92;;;6.24;71.21
75867;BME280;64513;56.258;43.980;2023-01-31T17:57:17;98749.42;;;6.24;71.00
75867;BME280;64513;56.258;43.980;2023-01-31T17:59:41;98755.46;;;6.24;71.15
75867;BME280;64513;56.258;43.980;2023-01-31T18:02:05;98754.67;;;6.24;70.94
75867;BME280;64513;56.258;43.980;2023-01-31T18:04:29;98741.55;;;6.24;70.96
75867;BME280;64513;56.258;43.980;2023-01-31T18:06:54;98744.17;;;6.24;70.76
75867;BME280;64513;56.258;43.980;2023-01-31T18:09:18;98754.67;;;6.24;70.85
75867;BME280;64513;56.258;43.980;2023-01-31T18:11:42;98757.30;;;6.24;70.94